createdAt,value
2023-05-08T00:00:30.622Z,39.32
2023-05-08T00:02:57.198Z,39.30
2023-05-08T00:05:23.872Z,39.46
2023-05-08T00:07:51.597Z,39.44
2023-05-08T00:10:18.202Z,39.51
2023-05-08T00:12:44.734Z,39.74
2023-05-08T00:15:11.594Z,39.97
2023-05-08T00:17:38.360Z,39.77
2023-05-08T00:20:08.018Z,40.00
2023-05-08T00:22:35.192Z,40.32
2023-05-08T00:25:02.671Z,40.16
2023-05-08T00:27:29.343Z,40.22
2023-05-08T00:29:56.025Z,40.29
2023-05-08T00:32:22.749Z,40.33
2023-05-08T00:34:49.283Z,40.46
2023-05-08T00:37:15.867Z,40.76
2023-05-08T00:39:42.416Z,40.67
2023-05-08T00:42:09.052Z,40.95
2023-05-08T00:44:35.645Z,40.75
2023-05-08T00:47:02.404Z,40.71
2023-05-08T00:49:29.145Z,41.00
2023-05-08T00:51:55.988Z,40.80
2023-05-08T00:54:22.520Z,40.95
2023-05-08T00:56:50.182Z,40.91
2023-05-08T00:59:16.819Z,40.88
2023-05-08T01:01:43.482Z,41.06
2023-05-08T01:04:10.058Z,41.04
2023-05-08T01:06:37.521Z,41.02
2023-05-08T01:09:04.702Z,41.04
2023-05-08T01:11:56.112Z,41.17
2023-05-08T01:14:46.625Z,40.98
2023-05-08T01:17:43.648Z,40.93
2023-05-08T01:20:18.874Z,40.94
2023-05-08T01:23:04.479Z,41.20
2023-05-08T01:26:00.522Z,41.14
2023-05-08T01:28:45.695Z,41.17
2023-05-08T01:31:40.160Z,41.40
2023-05-08T01:34:14.325Z,41.69
2023-05-08T01:36:47.919Z,41.55
2023-05-08T01:39:17.215Z,41.74
2023-05-08T01:41:50.666Z,42.05
2023-05-08T01:44:19.740Z,41.97
2023-05-08T01:46:48.693Z,41.99
2023-05-08T01:49:24.764Z,42.00
2023-05-08T01:52:13.335Z,41.92
2023-05-08T01:54:43.902Z,41.80
2023-05-08T01:57:10.668Z,42.23
2023-05-08T01:59:37.344Z,42.39
2023-05-08T02:02:04.105Z,42.21
2023-05-08T02:04:31.555Z,42.18
2023-05-08T02:06:58.089Z,42.15
2023-05-08T02:09:26.088Z,42.26
2023-05-08T02:11:52.708Z,42.16
2023-05-08T02:14:19.775Z,42.13
2023-05-08T02:16:47.737Z,42.19
2023-05-08T02:19:14.754Z,42.31
2023-05-08T02:21:41.293Z,42.31
2023-05-08T02:24:07.835Z,41.90
2023-05-08T02:26:34.343Z,41.85
2023-05-08T02:29:02.044Z,41.86
2023-05-08T02:31:29.229Z,41.70
2023-05-08T02:33:56.892Z,41.88
2023-05-08T02:36:24.984Z,41.79
2023-05-08T02:38:52.436Z,41.70
2023-05-08T02:41:20.779Z,41.74
2023-05-08T02:43:48.625Z,41.65
2023-05-08T02:46:18.130Z,41.82
2023-05-08T02:49:06.489Z,41.69
2023-05-08T02:51:46.591Z,41.77
2023-05-08T02:54:25.785Z,42.13
2023-05-08T02:56:56.544Z,41.89
2023-05-08T02:59:46.493Z,41.83
2023-05-08T03:02:17.661Z,41.74
2023-05-08T03:04:50.951Z,41.87
2023-05-08T03:07:19.381Z,41.90
2023-05-08T03:09:48.355Z,42.07
2023-05-08T03:12:16.667Z,42.18
2023-05-08T03:15:09.447Z,42.32
2023-05-08T03:17:36.890Z,42.04
2023-05-08T03:20:07.652Z,42.04
2023-05-08T03:22:35.174Z,42.10
2023-05-08T03:25:02.414Z,42.24
2023-05-08T03:27:30.105Z,42.30
2023-05-08T03:29:56.803Z,42.19
2023-05-08T03:32:24.373Z,42.20
2023-05-08T03:34:51.412Z,42.18
2023-05-08T03:37:18.046Z,42.32
2023-05-08T03:39:44.556Z,42.54
2023-05-08T03:42:16.263Z,42.53
2023-05-08T03:44:42.738Z,42.62
2023-05-08T03:47:09.387Z,42.63
2023-05-08T03:49:36.060Z,42.76
2023-05-08T03:52:02.688Z,42.70
2023-05-08T03:54:29.632Z,42.53
2023-05-08T03:56:57.863Z,42.74
2023-05-08T03:59:50.399Z,42.67
2023-05-08T04:02:36.296Z,42.94
2023-05-08T04:05:15.398Z,42.76
2023-05-08T04:07:46.838Z,42.90
2023-05-08T04:10:20.544Z,42.66
2023-05-08T04:13:04.138Z,42.64
2023-05-08T04:15:38.799Z,42.82
2023-05-08T04:18:08.066Z,42.69
2023-05-08T04:20:34.704Z,42.60
2023-05-08T04:23:01.429Z,42.55
2023-05-08T04:25:28.081Z,42.35
2023-05-08T04:27:55.482Z,42.14
2023-05-08T04:30:22.649Z,42.62
2023-05-08T04:32:49.661Z,42.73
2023-05-08T04:35:16.466Z,42.33
2023-05-08T04:37:43.277Z,42.06
2023-05-08T04:40:10.405Z,42.08
2023-05-08T04:42:38.998Z,41.97
2023-05-08T04:45:06.526Z,41.68
2023-05-08T04:47:33.228Z,41.39
2023-05-08T04:50:02.805Z,41.50
2023-05-08T04:52:31.794Z,41.42
2023-05-08T04:54:58.270Z,41.34
2023-05-08T04:57:24.968Z,41.53
2023-05-08T04:59:51.815Z,41.35
2023-05-08T05:02:18.977Z,41.37
2023-05-08T05:04:46.161Z,41.18
2023-05-08T05:07:13.010Z,41.25
2023-05-08T05:09:39.821Z,41.02
2023-05-08T05:12:06.841Z,41.17
2023-05-08T05:14:33.665Z,41.03
2023-05-08T05:17:00.416Z,41.03
2023-05-08T05:19:27.008Z,40.78
2023-05-08T05:21:53.571Z,40.61
2023-05-08T05:24:20.530Z,39.75
2023-05-08T05:26:47.098Z,39.98
2023-05-08T05:29:13.754Z,40.13
2023-05-08T05:31:40.521Z,39.77
2023-05-08T05:34:07.807Z,40.10
2023-05-08T05:36:35.265Z,40.13
2023-05-08T05:39:02.623Z,40.02
2023-05-08T05:41:30.179Z,39.63
2023-05-08T05:43:56.981Z,39.25
2023-05-08T05:46:31.498Z,38.94
2023-05-08T05:49:00.154Z,39.17
2023-05-08T05:51:27.130Z,39.11
2023-05-08T05:53:54.416Z,39.45
2023-05-08T05:56:22.597Z,39.19
2023-05-08T05:58:49.181Z,39.03
2023-05-08T06:01:16.089Z,39.48
2023-05-08T06:03:43.845Z,39.93
2023-05-08T06:06:10.689Z,40.10
2023-05-08T06:08:37.936Z,39.87
2023-05-08T06:11:04.513Z,39.95
2023-05-08T06:13:31.393Z,39.48
2023-05-08T06:15:58.323Z,39.42
2023-05-08T06:18:25.534Z,39.55
2023-05-08T06:20:58.034Z,39.40
2023-05-08T06:23:25.356Z,39.63
2023-05-08T06:25:52.649Z,39.45
2023-05-08T06:28:21.899Z,39.15
2023-05-08T06:30:48.546Z,38.90
2023-05-08T06:33:15.183Z,38.69
2023-05-08T06:35:45.804Z,38.58
2023-05-08T06:38:12.644Z,38.70
2023-05-08T06:40:45.620Z,37.83
2023-05-08T06:43:12.366Z,37.68
2023-05-08T06:45:39.645Z,37.22
2023-05-08T06:48:06.416Z,36.22
2023-05-08T06:50:33.497Z,35.92
2023-05-08T06:53:00.035Z,35.60
2023-05-08T06:55:26.558Z,35.71
2023-05-08T06:57:53.028Z,35.63
2023-05-08T07:00:19.957Z,34.33
2023-05-08T07:02:46.456Z,34.30
2023-05-08T07:05:13.583Z,34.69
2023-05-08T07:07:42.229Z,34.60
2023-05-08T07:10:09.375Z,34.13
2023-05-08T07:12:36.009Z,34.44
2023-05-08T07:15:13.807Z,34.35
2023-05-08T07:17:45.259Z,33.10
2023-05-08T07:20:11.975Z,33.62
2023-05-08T07:22:38.796Z,33.57
2023-05-08T07:25:06.098Z,32.88
2023-05-08T07:27:32.698Z,32.91
2023-05-08T07:30:03.468Z,32.49
2023-05-08T07:32:33.406Z,32.83
2023-05-08T07:35:02.184Z,32.61
2023-05-08T07:37:29.577Z,32.38
2023-05-08T07:39:56.223Z,32.26
2023-05-08T07:42:22.802Z,32.08
2023-05-08T07:44:54.888Z,32.13
2023-05-08T07:47:22.124Z,31.56
2023-05-08T07:49:48.696Z,31.69
2023-05-08T07:52:15.373Z,31.47
2023-05-08T07:54:43.158Z,31.85
2023-05-08T07:57:09.824Z,31.81
2023-05-08T07:59:36.524Z,30.93
2023-05-08T08:02:03.195Z,30.94
2023-05-08T08:04:30.060Z,30.27
2023-05-08T08:06:56.774Z,29.93
2023-05-08T08:09:23.436Z,30.11
2023-05-08T08:11:50.432Z,29.90
2023-05-08T08:14:16.972Z,29.74
2023-05-08T08:16:43.614Z,29.86
2023-05-08T08:19:10.356Z,29.83
2023-05-08T08:21:43.640Z,30.21
2023-05-08T08:24:10.243Z,30.26
2023-05-08T08:26:36.826Z,30.31
2023-05-08T08:29:03.990Z,30.46
2023-05-08T08:31:30.769Z,30.31
2023-05-08T08:33:57.782Z,30.55
2023-05-08T08:36:24.397Z,31.03
2023-05-08T08:38:50.965Z,30.25
2023-05-08T08:41:17.542Z,30.62
2023-05-08T08:43:44.031Z,30.75
2023-05-08T08:46:12.528Z,30.88
2023-05-08T08:48:43.020Z,30.47
2023-05-08T08:51:18.257Z,30.43
2023-05-08T08:53:45.977Z,30.86
2023-05-08T08:56:12.576Z,29.74
2023-05-08T08:58:47.400Z,29.32
2023-05-08T09:01:15.412Z,28.10
2023-05-08T09:03:42.226Z,28.11
2023-05-08T09:06:08.968Z,28.31
2023-05-08T09:08:36.757Z,29.05
2023-05-08T09:11:03.432Z,28.77
2023-05-08T09:13:32.010Z,27.99
2023-05-08T09:15:58.959Z,27.82
2023-05-08T09:18:25.458Z,26.91
2023-05-08T09:20:52.053Z,27.46
2023-05-08T09:23:19.176Z,27.57
2023-05-08T09:25:47.470Z,27.85
2023-05-08T09:28:24.698Z,28.28
2023-05-08T09:30:56.019Z,28.79
2023-05-08T09:33:27.007Z,28.61
2023-05-08T09:35:56.921Z,28.13
2023-05-08T09:38:36.648Z,27.25
2023-05-08T09:41:16.440Z,27.20
2023-05-08T09:43:44.121Z,27.63
2023-05-08T09:46:24.374Z,27.20
2023-05-08T09:48:58.347Z,26.98
2023-05-08T09:51:26.551Z,27.14
2023-05-08T09:53:53.983Z,26.73
2023-05-08T09:56:36.690Z,26.93
2023-05-08T09:59:21.497Z,27.26
2023-05-08T10:01:48.331Z,27.40
2023-05-08T10:04:15.185Z,27.24
2023-05-08T10:06:42.085Z,27.40
2023-05-08T10:09:10.322Z,27.00
2023-05-08T10:11:38.296Z,27.29
2023-05-08T10:14:04.760Z,27.39
2023-05-08T10:16:41.108Z,26.87
2023-05-08T10:19:17.553Z,26.94
2023-05-08T10:21:46.722Z,27.09
2023-05-08T10:24:16.030Z,26.21
2023-05-08T10:27:13.899Z,26.24
2023-05-08T10:29:43.395Z,26.53
2023-05-08T10:32:10.400Z,26.26
2023-05-08T10:34:39.809Z,26.53
2023-05-08T10:37:09.860Z,26.55
2023-05-08T10:39:36.820Z,26.88
2023-05-08T10:42:03.651Z,26.82
2023-05-08T10:44:30.624Z,27.09
2023-05-08T10:47:19.449Z,26.02
2023-05-08T10:49:55.610Z,25.80
2023-05-08T10:52:56.958Z,25.82
2023-05-08T10:55:29.350Z,26.00
2023-05-08T10:58:12.023Z,26.05
2023-05-08T11:00:57.050Z,26.45
2023-05-08T11:03:31.256Z,26.46
2023-05-08T11:05:59.960Z,27.26
2023-05-08T11:08:27.706Z,26.78
2023-05-08T11:11:04.385Z,26.56
2023-05-08T11:13:38.430Z,26.51
2023-05-08T11:16:11.678Z,26.86
2023-05-08T11:18:48.992Z,26.45
2023-05-08T11:21:21.164Z,26.52
2023-05-08T11:23:55.890Z,27.04
2023-05-08T11:26:23.025Z,27.31
2023-05-08T11:28:52.960Z,27.48
2023-05-08T11:31:19.859Z,27.01
2023-05-08T11:33:46.496Z,26.91
2023-05-08T11:36:14.338Z,26.81
2023-05-08T11:38:42.943Z,26.45
2023-05-08T11:41:10.627Z,26.85
2023-05-08T11:43:46.733Z,27.02
2023-05-08T11:46:14.850Z,27.19
2023-05-08T11:48:41.548Z,27.23
2023-05-08T11:51:08.470Z,26.78
2023-05-08T11:53:37.699Z,26.15
2023-05-08T11:56:04.790Z,26.33
2023-05-08T11:58:31.516Z,26.71
2023-05-08T12:03:30.802Z,26.35
2023-05-08T12:05:58.748Z,26.52
2023-05-08T12:08:25.434Z,26.79
2023-05-08T12:10:53.561Z,26.73
2023-05-08T12:13:20.985Z,26.68
2023-05-08T12:15:48.932Z,27.05
2023-05-08T12:18:16.046Z,27.19
2023-05-08T12:20:43.417Z,27.08
2023-05-08T12:23:12.997Z,26.87
2023-05-08T12:25:39.759Z,26.82
2023-05-08T12:28:07.534Z,27.01
2023-05-08T12:30:34.175Z,26.63
2023-05-08T12:33:01.043Z,26.44
2023-05-08T12:35:28.026Z,26.42
2023-05-08T12:37:54.625Z,26.82
2023-05-08T12:40:46.269Z,26.84
2023-05-08T12:43:13.256Z,27.36
2023-05-08T12:45:41.446Z,26.48
2023-05-08T12:48:12.978Z,26.44
2023-05-08T12:50:41.281Z,26.95
2023-05-08T12:53:09.345Z,27.34
2023-05-08T12:55:37.135Z,26.66
2023-05-08T12:58:15.693Z,26.73
2023-05-08T13:00:48.083Z,26.51
2023-05-08T13:03:25.674Z,26.32
2023-05-08T13:05:53.065Z,26.51
2023-05-08T13:08:19.777Z,26.80
2023-05-08T13:10:50.948Z,27.18
2023-05-08T13:13:20.229Z,26.99
2023-05-08T13:15:47.796Z,26.31
2023-05-08T13:18:15.084Z,26.15
2023-05-08T13:20:41.979Z,26.34
2023-05-08T13:23:09.649Z,26.29
2023-05-08T13:25:37.020Z,26.18
2023-05-08T13:28:04.687Z,26.38
2023-05-08T13:30:31.533Z,26.09
2023-05-08T13:32:58.284Z,26.38
2023-05-08T13:35:25.313Z,26.44
2023-05-08T13:37:52.049Z,26.52
2023-05-08T13:40:19.082Z,26.77
2023-05-08T13:42:45.743Z,26.77
2023-05-08T13:45:14.727Z,26.34
2023-05-08T13:47:42.528Z,26.14
2023-05-08T13:50:10.414Z,26.15
2023-05-08T13:52:37.959Z,26.34
2023-05-08T13:55:06.491Z,25.69
2023-05-08T13:57:33.418Z,25.16
2023-05-08T14:00:00.384Z,24.99
2023-05-08T14:02:27.369Z,25.43
2023-05-08T14:04:54.627Z,25.46
2023-05-08T14:07:21.366Z,25.54
2023-05-08T14:09:48.059Z,26.11
2023-05-08T14:12:14.734Z,25.67
2023-05-08T14:14:41.435Z,25.23
2023-05-08T14:17:09.108Z,25.17
2023-05-08T14:19:36.240Z,25.81
2023-05-08T14:22:03.095Z,25.77
2023-05-08T14:24:29.770Z,25.90
2023-05-08T14:26:56.401Z,25.36
2023-05-08T14:29:23.134Z,25.80
2023-05-08T14:31:49.792Z,25.73
2023-05-08T14:34:16.394Z,25.59
2023-05-08T14:36:43.119Z,26.00
2023-05-08T14:39:09.846Z,25.34
2023-05-08T14:41:38.404Z,26.18
2023-05-08T14:44:05.323Z,25.59
2023-05-08T14:46:31.977Z,26.19
2023-05-08T14:48:58.726Z,26.31
2023-05-08T14:51:25.443Z,26.30
2023-05-08T14:53:52.209Z,26.36
2023-05-08T14:56:19.109Z,26.51
2023-05-08T14:58:46.207Z,26.66
2023-05-08T15:01:12.980Z,26.61
2023-05-08T15:03:39.914Z,26.70
2023-05-08T15:06:07.272Z,26.19
2023-05-08T15:08:33.943Z,26.16
2023-05-08T15:11:00.647Z,25.96
2023-05-08T15:13:27.495Z,26.35
2023-05-08T15:15:54.399Z,25.95
2023-05-08T15:18:21.071Z,25.84
2023-05-08T15:20:48.127Z,26.03
2023-05-08T15:23:15.309Z,26.07
2023-05-08T15:25:42.037Z,26.24
2023-05-08T15:28:08.741Z,26.33
2023-05-08T15:30:35.339Z,26.38
2023-05-08T15:33:01.985Z,26.51
2023-05-08T15:35:28.650Z,26.60
2023-05-08T15:37:55.266Z,26.13
2023-05-08T15:40:21.914Z,25.97
2023-05-08T15:42:48.687Z,26.32
2023-05-08T15:45:16.575Z,26.35
2023-05-08T15:47:43.471Z,26.90
2023-05-08T15:50:10.947Z,26.68
2023-05-08T15:52:37.676Z,26.80
2023-05-08T15:55:04.676Z,26.85
2023-05-08T15:57:31.340Z,27.01
2023-05-08T15:59:57.953Z,27.05
2023-05-08T16:02:25.567Z,27.17
2023-05-08T16:04:52.405Z,26.78
2023-05-08T16:07:19.009Z,26.96
2023-05-08T16:09:46.106Z,26.72
2023-05-08T16:12:12.837Z,26.56
2023-05-08T16:14:39.481Z,26.54
2023-05-08T16:17:10.408Z,26.75
2023-05-08T16:19:38.614Z,26.60
2023-05-08T16:22:06.962Z,26.65
2023-05-08T16:24:33.757Z,26.69
2023-05-08T16:27:00.390Z,26.68
2023-05-08T16:29:27.179Z,26.68
2023-05-08T16:31:53.822Z,26.78
2023-05-08T16:34:20.727Z,26.83
2023-05-08T16:36:47.416Z,26.83
2023-05-08T16:39:14.074Z,27.16
2023-05-08T16:41:40.776Z,27.02
2023-05-08T16:44:07.420Z,27.24
2023-05-08T16:46:34.319Z,27.45
2023-05-08T16:49:00.992Z,27.73
2023-05-08T16:51:27.860Z,27.81
2023-05-08T16:53:56.008Z,27.63
2023-05-08T16:56:24.753Z,27.76
2023-05-08T16:58:51.332Z,27.99
2023-05-08T17:01:18.139Z,28.15
2023-05-08T17:03:44.972Z,28.26
2023-05-08T17:06:11.751Z,28.68
2023-05-08T17:08:38.325Z,28.66
2023-05-08T17:11:04.978Z,29.27
2023-05-08T17:13:31.617Z,29.60
2023-05-08T17:15:58.324Z,29.64
2023-05-08T17:18:25.134Z,30.05
2023-05-08T17:20:51.781Z,30.25
2023-05-08T17:23:18.399Z,30.60
2023-05-08T17:25:45.088Z,30.34
2023-05-08T17:28:11.691Z,30.45
2023-05-08T17:30:38.432Z,30.60
2023-05-08T17:33:05.295Z,30.98
2023-05-08T17:35:32.142Z,31.21
2023-05-08T17:37:58.795Z,31.28
2023-05-08T17:40:26.579Z,31.55
2023-05-08T17:42:53.196Z,31.92
2023-05-08T17:45:19.806Z,32.19
2023-05-08T17:47:46.511Z,32.31
2023-05-08T17:50:13.378Z,32.67
2023-05-08T17:52:40.498Z,32.55
2023-05-08T17:55:07.903Z,32.58
2023-05-08T17:57:34.561Z,32.80
2023-05-08T18:00:01.210Z,32.86
2023-05-08T18:02:28.135Z,32.90
2023-05-08T18:04:54.950Z,32.69
2023-05-08T18:07:21.712Z,32.84
2023-05-08T18:09:48.388Z,33.06
2023-05-08T18:12:15.092Z,33.08
2023-05-08T18:14:43.275Z,33.27
2023-05-08T18:17:11.872Z,33.61
2023-05-08T18:19:38.531Z,33.86
2023-05-08T18:22:05.215Z,34.11
2023-05-08T18:24:31.865Z,34.68
2023-05-08T18:26:58.547Z,35.06
2023-05-08T18:29:25.654Z,35.36
2023-05-08T18:31:52.376Z,35.75
2023-05-08T18:34:19.133Z,36.13
2023-05-08T18:36:45.779Z,36.44
2023-05-08T18:39:12.493Z,36.56
2023-05-08T18:41:39.336Z,36.81
2023-05-08T18:44:06.075Z,37.07
2023-05-08T18:46:32.788Z,37.32
2023-05-08T18:48:59.424Z,37.13
2023-05-08T18:51:26.081Z,37.22
2023-05-08T18:53:52.799Z,37.28
2023-05-08T18:56:19.773Z,37.36
2023-05-08T18:58:46.867Z,37.77
2023-05-08T19:01:13.696Z,38.14
2023-05-08T19:03:40.470Z,38.64
2023-05-08T19:06:07.269Z,39.01
2023-05-08T19:08:33.917Z,39.37
2023-05-08T19:11:00.568Z,39.76
2023-05-08T19:13:27.524Z,40.18
2023-05-08T19:15:54.443Z,40.63
2023-05-08T19:18:21.278Z,41.08
2023-05-08T19:20:47.862Z,41.40
2023-05-08T19:23:14.538Z,41.99
2023-05-08T19:25:41.227Z,42.51
2023-05-08T19:28:07.858Z,43.13
2023-05-08T19:30:34.468Z,43.28
2023-05-08T19:33:01.297Z,43.72
2023-05-08T19:35:27.961Z,44.05
2023-05-08T19:37:54.674Z,44.72
2023-05-08T19:40:21.274Z,45.09
2023-05-08T19:42:47.893Z,45.59
2023-05-08T19:45:16.245Z,45.96
2023-05-08T19:47:42.944Z,46.34
2023-05-08T19:50:12.511Z,46.69
2023-05-08T19:52:39.403Z,47.12
2023-05-08T19:55:06.572Z,47.29
2023-05-08T19:57:33.152Z,47.70
2023-05-08T20:00:00.249Z,47.87
2023-05-08T20:02:26.968Z,48.09
2023-05-08T20:05:18.877Z,48.07
2023-05-08T20:07:40.348Z,48.16
2023-05-08T20:10:07.584Z,48.39
2023-05-08T20:12:34.173Z,48.50
2023-05-08T20:15:00.795Z,48.83
2023-05-08T20:17:27.502Z,49.36
2023-05-08T20:19:54.223Z,49.65
2023-05-08T20:22:21.258Z,50.05
2023-05-08T20:24:47.967Z,50.46
2023-05-08T20:27:14.626Z,50.82
2023-05-08T20:29:41.360Z,51.21
2023-05-08T20:32:08.378Z,51.55
2023-05-08T20:34:35.197Z,51.85
2023-05-08T20:37:03.685Z,52.16
2023-05-08T20:39:30.444Z,52.57
2023-05-08T20:41:57.094Z,52.95
2023-05-08T20:44:23.691Z,53.16
2023-05-08T20:46:51.391Z,53.44
2023-05-08T20:49:18.066Z,53.70
2023-05-08T20:51:44.683Z,54.04
2023-05-08T20:54:11.269Z,54.31
2023-05-08T20:56:37.883Z,54.55
2023-05-08T20:59:04.533Z,54.73
2023-05-08T21:01:31.213Z,55.04
2023-05-08T21:03:57.822Z,55.22
2023-05-08T21:06:24.890Z,55.46
2023-05-08T21:08:51.583Z,55.62
2023-05-08T21:11:18.297Z,55.88
2023-05-08T21:13:45.310Z,56.01
2023-05-08T21:16:12.107Z,56.17
2023-05-08T21:18:39.175Z,56.22
2023-05-08T21:21:14.925Z,56.25
2023-05-08T21:23:41.696Z,56.34
2023-05-08T21:26:08.374Z,56.38
2023-05-08T21:28:35.281Z,56.50
2023-05-08T21:31:01.906Z,56.59
2023-05-08T21:33:29.059Z,56.88
2023-05-08T21:35:56.056Z,56.99
2023-05-08T21:38:22.648Z,57.00
2023-05-08T21:40:49.361Z,57.16
2023-05-08T21:43:15.959Z,57.25
2023-05-08T21:45:42.705Z,57.28
2023-05-08T21:48:09.345Z,57.31
2023-05-08T21:50:35.944Z,57.28
2023-05-08T21:53:03.310Z,57.51
2023-05-08T21:55:32.187Z,57.68
2023-05-08T21:57:59.143Z,57.68
2023-05-08T22:00:26.956Z,57.74
2023-05-08T22:02:53.742Z,57.89
2023-05-08T22:05:20.594Z,57.97
2023-05-08T22:07:47.635Z,58.26
2023-05-08T22:10:14.509Z,58.45
2023-05-08T22:12:41.294Z,58.68
2023-05-08T22:15:18.011Z,58.94
2023-05-08T22:17:49.822Z,59.38
2023-05-08T22:20:16.720Z,59.51
2023-05-08T22:22:43.424Z,59.55
2023-05-08T22:25:10.102Z,59.56
2023-05-08T22:27:36.699Z,59.82
2023-05-08T22:30:03.545Z,59.87
2023-05-08T22:32:30.320Z,59.95
2023-05-08T22:34:56.975Z,59.95
2023-05-08T22:37:23.636Z,60.05
2023-05-08T22:39:50.303Z,60.28
2023-05-08T22:42:16.917Z,60.29
2023-05-08T22:44:44.032Z,60.42
2023-05-08T22:47:11.246Z,60.70
2023-05-08T22:49:41.459Z,60.75
2023-05-08T22:52:08.743Z,61.04
2023-05-08T22:54:35.433Z,61.03
2023-05-08T22:57:02.895Z,61.28
2023-05-08T22:59:29.671Z,61.42
2023-05-08T23:01:56.292Z,61.59
2023-05-08T23:04:23.102Z,61.73
2023-05-08T23:06:49.945Z,61.81
2023-05-08T23:09:16.532Z,61.89
2023-05-08T23:11:43.182Z,62.04
2023-05-08T23:14:09.852Z,62.07
2023-05-08T23:16:36.695Z,62.10
2023-05-08T23:19:04.603Z,62.26
2023-05-08T23:21:32.314Z,62.11
2023-05-08T23:23:59.405Z,62.12
2023-05-08T23:26:26.279Z,62.40
2023-05-08T23:28:52.997Z,62.77
2023-05-08T23:31:19.765Z,62.76
2023-05-08T23:33:46.442Z,62.95
2023-05-08T23:36:13.053Z,62.87
2023-05-08T23:38:39.701Z,63.15
2023-05-08T23:41:06.377Z,63.29
2023-05-08T23:43:33.188Z,63.37
2023-05-08T23:45:59.853Z,63.63
2023-05-08T23:48:26.797Z,63.61
2023-05-08T23:50:53.640Z,63.64
2023-05-08T23:53:20.782Z,63.72
2023-05-08T23:55:50.059Z,63.88
2023-05-08T23:58:18.394Z,63.74
